Terminal Aerodrome Forecast
Issued by NWS Boston, MA

Home | Current Version | Previous Version | Text Only | Print | Product List | Glossary On
Versions: 1 2 3 4 5 6 7 8 9 10 11 12 13 14 15 16
000
FTUS41 KBOX 201127
TAFORH
TAF
KORH 201127Z 2012/2112 02008KT P6SM FEW250
     FM201700 11006KT P6SM FEW250
     FM210200 18006KT P6SM SCT250
     FM211100 24004KT P6SM SCT120=

USA.gov is the U.S. government's official web portal to all federal, state and local government web resources and services.